createdAt,value
2018-02-18T00:00:25.166Z,54.40
2018-02-18T00:01:25.576Z,53.60
2018-02-18T00:02:25.075Z,55.80
2018-02-18T00:03:25.078Z,58.50
2018-02-18T00:04:24.982Z,58.30
2018-02-18T00:05:25.115Z,61.90
2018-02-18T00:06:26.188Z,61.00
2018-02-18T00:07:24.943Z,63.20
2018-02-18T00:08:24.573Z,64.40
2018-02-18T00:09:25.172Z,66.10
2018-02-18T00:10:25.671Z,64.50
2018-02-18T00:11:24.951Z,63.20
2018-02-18T00:12:24.928Z,64.10
2018-02-18T00:13:25.007Z,65.10
2018-02-18T00:14:25.068Z,59.50
2018-02-18T00:15:25.329Z,60.30
2018-02-18T00:16:24.431Z,59.80
2018-02-18T00:17:24.842Z,59.00
2018-02-18T00:18:24.954Z,64.40
2018-02-18T00:19:25.350Z,65.30
2018-02-18T00:20:24.134Z,61.30
2018-02-18T00:21:25.524Z,63.90
2018-02-18T00:23:08.230Z,61.50
2018-02-18T00:24:30.626Z,61.10
2018-02-18T00:25:30.257Z,62.70
2018-02-18T00:26:30.928Z,59.90
2018-02-18T00:27:30.525Z,59.50
2018-02-18T00:28:31.261Z,61.60
2018-02-18T00:29:30.984Z,58.30
2018-02-18T00:30:30.936Z,58.70
2018-02-18T00:31:30.299Z,62.50
2018-02-18T00:32:30.915Z,61.00
2018-02-18T00:33:31.459Z,58.30
2018-02-18T00:34:52.384Z,57.10
2018-02-18T00:35:53.487Z,58.30
2018-02-18T00:36:53.297Z,58.00
2018-02-18T00:37:53.056Z,57.30
2018-02-18T00:38:52.430Z,58.10
2018-02-18T00:39:53.375Z,60.30
2018-02-18T00:40:52.609Z,62.40
2018-02-18T00:41:52.960Z,64.20
2018-02-18T00:42:52.564Z,62.00
2018-02-18T00:43:53.417Z,62.70
2018-02-18T00:44:52.896Z,61.50
2018-02-18T00:45:53.814Z,62.40
2018-02-18T00:46:53.600Z,60.70
2018-02-18T00:47:52.983Z,60.90
2018-02-18T00:48:52.628Z,66.50
2018-02-18T00:49:54.592Z,66.40
2018-02-18T00:50:53.353Z,65.00
2018-02-18T00:51:53.267Z,63.00
2018-02-18T00:53:17.930Z,62.40
2018-02-18T00:54:18.133Z,62.50
2018-02-18T00:55:20.729Z,63.00
2018-02-18T00:56:18.259Z,62.00
2018-02-18T00:57:17.983Z,60.20
2018-02-18T00:58:17.818Z,64.20
2018-02-18T00:59:18.388Z,65.50
2018-02-18T01:00:17.791Z,65.20
2018-02-18T01:01:17.868Z,65.40
2018-02-18T01:02:18.249Z,61.60
2018-02-18T01:03:18.010Z,63.90
2018-02-18T01:04:17.845Z,62.60
2018-02-18T01:05:18.753Z,63.70
2018-02-18T01:06:18.639Z,62.80
2018-02-18T01:07:18.451Z,65.90
2018-02-18T01:08:18.343Z,62.30
2018-02-18T01:09:17.749Z,63.40
2018-02-18T01:10:18.720Z,65.50
2018-02-18T01:11:18.589Z,69.00
2018-02-18T01:12:18.449Z,69.30
2018-02-18T01:13:17.962Z,69.90
2018-02-18T01:14:17.516Z,69.10
2018-02-18T01:15:19.689Z,65.80
2018-02-18T01:16:18.663Z,65.80
2018-02-18T01:17:18.206Z,67.80
2018-02-18T01:18:17.898Z,65.70
2018-02-18T01:19:17.480Z,65.10
2018-02-18T01:20:17.996Z,67.00
2018-02-18T01:21:17.862Z,64.50
2018-02-18T01:22:17.764Z,63.20
2018-02-18T01:23:40.351Z,63.20
2018-02-18T01:24:41.272Z,62.30
2018-02-18T01:25:40.148Z,61.40
2018-02-18T01:26:40.954Z,61.80
2018-02-18T01:27:40.467Z,64.50
2018-02-18T01:28:40.824Z,64.00
2018-02-18T01:29:40.876Z,61.60
2018-02-18T01:30:40.724Z,60.40
2018-02-18T01:31:40.676Z,61.00
2018-02-18T01:32:40.308Z,61.60
2018-02-18T01:33:40.858Z,61.60
2018-02-18T01:34:40.140Z,61.70
2018-02-18T01:35:41.219Z,61.70
2018-02-18T01:36:40.816Z,59.60
2018-02-18T01:37:40.291Z,61.70
2018-02-18T01:38:41.237Z,62.30
2018-02-18T01:39:41.127Z,63.70
2018-02-18T01:40:41.083Z,65.70
2018-02-18T01:41:40.623Z,59.80
2018-02-18T01:42:40.682Z,61.30
2018-02-18T01:43:40.385Z,63.10
2018-02-18T01:44:40.345Z,63.10
2018-02-18T01:45:39.958Z,60.20
2018-02-18T01:46:40.962Z,59.30
2018-02-18T01:47:40.507Z,61.50
2018-02-18T01:48:40.155Z,58.90
2018-02-18T01:49:41.010Z,60.80
2018-02-18T01:50:40.669Z,62.50
2018-02-18T01:51:40.266Z,60.30
2018-02-18T01:52:41.071Z,60.30
2018-02-18T01:53:40.932Z,61.00
2018-02-18T01:54:40.886Z,61.90
2018-02-18T01:55:40.878Z,63.10
2018-02-18T01:56:40.643Z,59.20
2018-02-18T01:57:40.062Z,59.30
2018-02-18T01:58:40.304Z,58.30
2018-02-18T01:59:40.136Z,58.50
2018-02-18T02:00:41.201Z,57.00
2018-02-18T02:01:40.755Z,61.50
2018-02-18T02:02:40.610Z,60.10
2018-02-18T02:03:40.446Z,61.30
2018-02-18T02:04:40.420Z,60.00
2018-02-18T02:05:39.912Z,59.00
2018-02-18T02:06:40.654Z,58.80
2018-02-18T02:07:40.780Z,60.60
2018-02-18T02:08:40.748Z,59.20
2018-02-18T02:09:40.429Z,61.40
2018-02-18T02:10:40.236Z,59.00
2018-02-18T02:11:40.231Z,59.10
2018-02-18T02:12:40.904Z,60.50
2018-02-18T02:13:40.660Z,61.50
2018-02-18T02:14:40.125Z,61.30
2018-02-18T02:15:40.965Z,58.00
2018-02-18T02:16:40.813Z,58.90
2018-02-18T02:17:40.625Z,61.10
2018-02-18T02:18:40.597Z,63.70
2018-02-18T02:19:40.348Z,61.20
2018-02-18T02:20:41.104Z,59.50
2018-02-18T02:21:40.586Z,59.00
2018-02-18T02:22:39.947Z,59.50
2018-02-18T02:23:40.770Z,63.40
2018-02-18T02:24:40.182Z,66.10
2018-02-18T02:25:41.145Z,65.00
2018-02-18T02:26:41.045Z,63.70
2018-02-18T02:27:40.825Z,64.40
2018-02-18T02:28:40.369Z,67.60
2018-02-18T02:29:40.055Z,71.60
2018-02-18T02:30:40.573Z,74.10
2018-02-18T02:31:40.563Z,71.80
2018-02-18T02:32:40.381Z,70.70
2018-02-18T02:33:40.193Z,70.10
2018-02-18T02:35:02.187Z,66.90
2018-02-18T02:36:03.131Z,66.40
2018-02-18T02:37:02.840Z,65.70
2018-02-18T02:38:02.359Z,62.90
2018-02-18T02:39:03.233Z,64.10
2018-02-18T02:40:02.707Z,64.50
2018-02-18T02:41:03.048Z,65.90
2018-02-18T02:42:02.575Z,68.60
2018-02-18T02:43:24.862Z,70.20
2018-02-18T02:44:26.002Z,67.40
2018-02-18T02:45:25.965Z,71.20
2018-02-18T02:46:25.465Z,69.30
2018-02-18T02:47:46.512Z,72.10
2018-02-18T02:48:46.891Z,69.50
2018-02-18T02:49:46.701Z,69.80
2018-02-18T02:50:46.322Z,67.80
2018-02-18T02:51:47.016Z,71.90
2018-02-18T02:52:46.446Z,74.60
2018-02-18T02:53:47.276Z,73.10
2018-02-18T02:54:46.874Z,70.40
2018-02-18T02:55:46.644Z,72.20
2018-02-18T02:56:46.837Z,71.70
2018-02-18T02:57:46.684Z,68.20
2018-02-18T02:58:47.389Z,68.30
2018-02-18T02:59:46.731Z,69.10
2018-02-18T03:00:46.590Z,69.00
2018-02-18T03:01:46.461Z,66.90
2018-02-18T03:02:46.810Z,68.30
2018-02-18T03:03:46.195Z,69.60
2018-02-18T03:04:46.794Z,67.00
2018-02-18T03:05:46.208Z,69.30
2018-02-18T03:06:46.644Z,68.20
2018-02-18T03:08:08.505Z,67.90
2018-02-18T03:09:09.012Z,70.70
2018-02-18T03:10:08.456Z,68.80
2018-02-18T03:11:09.035Z,69.90
2018-02-18T03:12:09.709Z,69.20
2018-02-18T03:13:09.126Z,71.20
2018-02-18T03:14:08.900Z,70.70
2018-02-18T03:15:09.481Z,71.00
2018-02-18T03:16:09.110Z,72.50
2018-02-18T03:17:08.846Z,72.30
2018-02-18T03:18:09.551Z,71.80
2018-02-18T03:19:09.501Z,73.20
2018-02-18T03:20:09.308Z,70.00
2018-02-18T03:21:08.979Z,72.10
2018-02-18T03:22:31.637Z,69.80
2018-02-18T03:23:32.191Z,70.00
2018-02-18T03:24:31.639Z,71.20
2018-02-18T03:25:32.385Z,70.60
2018-02-18T03:26:32.248Z,68.40
2018-02-18T03:27:31.666Z,72.80
2018-02-18T03:28:32.022Z,67.40
2018-02-18T03:29:31.881Z,66.30
2018-02-18T03:30:53.310Z,66.80
2018-02-18T03:31:53.686Z,67.70
2018-02-18T03:32:54.512Z,68.10
2018-02-18T03:33:54.221Z,66.20
2018-02-18T03:34:54.090Z,68.00
2018-02-18T03:35:55.131Z,65.10
2018-02-18T03:36:53.727Z,67.90
2018-02-18T03:37:54.360Z,71.40
2018-02-18T03:38:54.261Z,71.60
2018-02-18T03:39:53.705Z,68.60
2018-02-18T03:40:54.667Z,69.40
2018-02-18T03:41:54.349Z,68.00
2018-02-18T03:42:53.946Z,70.90
2018-02-18T03:43:53.472Z,67.60
2018-02-18T03:44:54.428Z,67.80
2018-02-18T03:45:53.704Z,71.30
2018-02-18T03:46:54.552Z,68.90
2018-02-18T03:47:53.728Z,71.30
2018-02-18T03:48:54.507Z,69.80
2018-02-18T03:49:54.419Z,70.50
2018-02-18T03:50:54.619Z,73.70
2018-02-18T03:51:54.127Z,73.00
2018-02-18T03:52:53.606Z,71.40
2018-02-18T03:53:53.917Z,70.70
2018-02-18T03:54:53.484Z,69.20
2018-02-18T03:55:54.123Z,67.00
2018-02-18T03:56:53.608Z,67.80
2018-02-18T03:57:54.502Z,70.60
2018-02-18T03:58:54.317Z,65.10
2018-02-18T03:59:53.972Z,66.90
2018-02-18T04:00:53.882Z,68.10
2018-02-18T04:01:53.478Z,65.50
2018-02-18T04:02:54.214Z,71.00
2018-02-18T04:03:53.836Z,67.50
2018-02-18T04:04:54.384Z,68.60
2018-02-18T04:05:54.168Z,67.40
2018-02-18T04:06:54.089Z,68.00
2018-02-18T04:07:53.780Z,68.70
2018-02-18T04:08:54.175Z,65.00
2018-02-18T04:09:53.945Z,68.10
2018-02-18T04:10:53.695Z,67.40
2018-02-18T04:11:54.522Z,66.50
2018-02-18T04:12:56.071Z,69.60
2018-02-18T04:13:53.844Z,69.50
2018-02-18T04:14:54.450Z,65.30
2018-02-18T04:16:15.223Z,64.80
2018-02-18T04:17:15.904Z,66.50
2018-02-18T04:18:15.372Z,67.20
2018-02-18T04:19:15.995Z,67.80
2018-02-18T04:20:15.539Z,69.30
2018-02-18T04:21:15.820Z,67.70
2018-02-18T04:22:15.608Z,68.70
2018-02-18T04:23:16.389Z,68.20
2018-02-18T04:24:16.093Z,70.20
2018-02-18T04:25:15.305Z,65.20
2018-02-18T04:26:15.966Z,66.00
2018-02-18T04:27:15.358Z,65.80
2018-02-18T04:28:15.665Z,66.90
2018-02-18T04:29:15.351Z,61.10
2018-02-18T04:30:15.797Z,62.40
2018-02-18T04:31:15.557Z,64.50
2018-02-18T04:32:15.355Z,62.50
2018-02-18T04:33:16.187Z,63.80
2018-02-18T04:34:15.643Z,63.90
2018-02-18T04:35:58.048Z,63.10
2018-02-18T04:36:58.628Z,67.90
2018-02-18T04:37:58.535Z,64.40
2018-02-18T04:38:57.918Z,64.10
2018-02-18T04:39:58.600Z,63.80
2018-02-18T04:40:58.358Z,64.50
2018-02-18T04:41:57.820Z,63.90
2018-02-18T04:42:58.273Z,62.10
2018-02-18T04:43:57.776Z,62.20
2018-02-18T04:45:19.878Z,65.10
2018-02-18T04:46:20.144Z,64.10
2018-02-18T04:47:20.625Z,64.20
2018-02-18T04:48:20.536Z,65.90
2018-02-18T04:49:20.470Z,64.20
2018-02-18T04:50:20.031Z,63.90
2018-02-18T04:51:20.426Z,62.50
2018-02-18T04:52:20.300Z,60.40
2018-02-18T04:53:21.134Z,62.00
2018-02-18T04:54:20.652Z,61.10
2018-02-18T04:55:20.239Z,61.30
2018-02-18T04:56:20.675Z,61.60
2018-02-18T04:57:20.569Z,61.00
2018-02-18T04:58:20.109Z,63.00
2018-02-18T04:59:20.924Z,63.60
2018-02-18T05:00:20.345Z,62.90
2018-02-18T05:01:42.078Z,62.40
2018-02-18T05:02:42.712Z,60.30
2018-02-18T05:03:42.478Z,63.80
2018-02-18T05:04:42.850Z,65.00
2018-02-18T05:05:42.819Z,62.40
2018-02-18T05:06:42.153Z,63.50
2018-02-18T05:07:42.515Z,64.30
2018-02-18T05:08:43.202Z,62.20
2018-02-18T05:09:42.400Z,62.10
2018-02-18T05:10:42.816Z,62.20
2018-02-18T05:11:42.551Z,62.30
2018-02-18T05:12:43.345Z,61.10
2018-02-18T05:13:42.763Z,59.70
2018-02-18T05:14:42.453Z,59.40
2018-02-18T05:15:43.168Z,62.60
2018-02-18T05:16:42.916Z,60.20
2018-02-18T05:17:42.312Z,61.20
2018-02-18T05:18:42.659Z,58.80
2018-02-18T05:19:42.202Z,59.00
2018-02-18T05:20:42.992Z,59.70
2018-02-18T05:21:42.660Z,58.20
2018-02-18T05:22:42.063Z,58.80
2018-02-18T05:23:42.875Z,57.50
2018-02-18T05:24:42.220Z,56.80
2018-02-18T05:26:03.942Z,58.30
2018-02-18T05:27:04.488Z,57.60
2018-02-18T05:28:05.243Z,58.00
2018-02-18T05:29:04.866Z,56.00
2018-02-18T05:30:04.314Z,57.50
2018-02-18T05:31:04.905Z,57.80
2018-02-18T05:32:04.574Z,57.60
2018-02-18T05:33:04.089Z,56.30
2018-02-18T05:34:04.796Z,58.20
2018-02-18T05:35:04.379Z,57.70
2018-02-18T05:36:04.666Z,55.80
2018-02-18T05:37:04.461Z,56.80
2018-02-18T05:38:05.014Z,57.10
2018-02-18T05:39:04.798Z,55.30
2018-02-18T05:40:04.304Z,56.30
2018-02-18T05:41:05.027Z,55.50
2018-02-18T05:42:04.668Z,56.10
2018-02-18T05:43:04.332Z,55.50
2018-02-18T05:44:05.039Z,55.00
2018-02-18T05:45:04.738Z,57.50
2018-02-18T05:46:04.228Z,57.70
2018-02-18T05:47:04.640Z,57.90
2018-02-18T05:48:25.416Z,57.50
2018-02-18T05:49:47.367Z,55.10
2018-02-18T05:50:48.221Z,56.50
2018-02-18T05:51:47.651Z,54.40
2018-02-18T05:53:08.854Z,54.80
2018-02-18T05:54:09.428Z,53.70
2018-02-18T05:55:08.769Z,55.10
2018-02-18T05:56:09.554Z,54.00
2018-02-18T05:57:09.018Z,56.30
2018-02-18T05:58:09.478Z,57.60
2018-02-18T05:59:08.746Z,56.80
2018-02-18T06:00:09.339Z,55.90
2018-02-18T06:01:10.185Z,55.10
2018-02-18T06:02:10.072Z,55.70
2018-02-18T06:03:09.818Z,54.50
2018-02-18T06:04:09.532Z,57.60
2018-02-18T06:05:08.965Z,54.60
2018-02-18T06:06:09.420Z,54.60
2018-02-18T06:07:30.402Z,55.10
2018-02-18T06:08:31.065Z,57.40
2018-02-18T06:09:30.455Z,57.00
2018-02-18T06:10:30.921Z,56.30
2018-02-18T06:11:31.565Z,56.70
2018-02-18T06:12:31.233Z,55.20
2018-02-18T06:13:30.692Z,56.20
2018-02-18T06:14:31.568Z,55.00
2018-02-18T06:15:31.445Z,56.50
2018-02-18T06:16:31.030Z,56.60
2018-02-18T06:17:30.761Z,56.00
2018-02-18T06:18:31.583Z,55.40
2018-02-18T06:19:31.137Z,54.40
2018-02-18T06:20:52.112Z,53.50
2018-02-18T06:21:52.402Z,52.40
2018-02-18T06:22:52.231Z,54.00
2018-02-18T06:23:53.037Z,55.80
2018-02-18T06:24:52.558Z,52.30
2018-02-18T06:25:52.263Z,55.00
2018-02-18T06:26:52.190Z,55.80
2018-02-18T06:27:52.619Z,54.20
2018-02-18T06:28:52.573Z,53.80
2018-02-18T06:29:52.081Z,55.60
2018-02-18T06:30:52.636Z,54.70
2018-02-18T06:31:52.031Z,56.10
2018-02-18T06:33:14.070Z,54.00
2018-02-18T06:34:36.068Z,53.30
2018-02-18T06:35:36.508Z,54.30
2018-02-18T06:36:35.826Z,55.40
2018-02-18T06:37:36.238Z,55.40
2018-02-18T06:38:36.957Z,53.10
2018-02-18T06:39:36.526Z,53.10
2018-02-18T06:40:36.346Z,52.90
2018-02-18T06:41:36.067Z,53.10
2018-02-18T06:42:36.833Z,52.40
2018-02-18T06:43:36.427Z,51.30
2018-02-18T06:44:35.828Z,52.10
2018-02-18T06:45:36.633Z,49.60
2018-02-18T06:46:36.021Z,51.20
2018-02-18T06:47:36.559Z,50.00
2018-02-18T06:48:36.519Z,50.80
2018-02-18T06:49:36.416Z,52.90
2018-02-18T06:50:35.690Z,53.30
2018-02-18T06:51:57.700Z,52.60
2018-02-18T06:52:58.121Z,50.80
2018-02-18T06:53:58.866Z,51.70
2018-02-18T06:54:58.215Z,49.10
2018-02-18T06:56:20.500Z,49.70
2018-02-18T06:57:21.498Z,49.10
2018-02-18T06:58:21.554Z,48.50
2018-02-18T06:59:21.027Z,46.90
2018-02-18T07:00:20.729Z,46.70
2018-02-18T07:01:21.585Z,44.80
2018-02-18T07:02:21.129Z,44.90
2018-02-18T07:03:20.733Z,43.00
2018-02-18T07:04:20.293Z,41.90
2018-02-18T07:05:21.176Z,42.70
2018-02-18T07:06:20.930Z,42.30
2018-02-18T07:07:20.365Z,40.00
2018-02-18T07:08:21.263Z,43.10
2018-02-18T07:09:20.858Z,41.80
2018-02-18T07:10:20.288Z,41.60
2018-02-18T07:11:20.683Z,41.50
2018-02-18T07:12:21.342Z,40.60
2018-02-18T07:13:21.284Z,39.70
2018-02-18T07:14:20.702Z,41.00
2018-02-18T07:15:20.673Z,42.50
2018-02-18T07:16:21.481Z,40.40
2018-02-18T07:17:21.588Z,40.20
2018-02-18T07:18:21.583Z,40.20
2018-02-18T07:19:21.235Z,39.80
2018-02-18T07:20:42.356Z,39.00
2018-02-18T07:21:42.971Z,38.40
2018-02-18T07:22:42.683Z,38.40
2018-02-18T07:23:42.280Z,38.40
2018-02-18T07:24:43.063Z,37.20
2018-02-18T07:25:42.620Z,38.50
2018-02-18T07:26:43.050Z,37.50
2018-02-18T07:27:42.673Z,37.70
2018-02-18T07:28:42.669Z,37.70
2018-02-18T07:29:42.509Z,37.90
2018-02-18T07:31:04.102Z,37.70
2018-02-18T07:32:04.750Z,36.00
2018-02-18T07:33:04.282Z,34.40
2018-02-18T07:34:03.667Z,34.10
2018-02-18T07:35:04.607Z,34.30
2018-02-18T07:36:04.190Z,33.10
2018-02-18T07:37:04.006Z,32.80
2018-02-18T07:38:04.765Z,34.60
2018-02-18T07:39:04.385Z,32.30
2018-02-18T07:40:03.756Z,31.60
2018-02-18T07:41:04.545Z,32.10
2018-02-18T07:42:25.678Z,31.00
2018-02-18T07:43:25.367Z,32.00
2018-02-18T07:44:26.266Z,31.40
2018-02-18T07:45:25.924Z,30.50
2018-02-18T07:46:25.788Z,32.40
2018-02-18T07:47:26.916Z,30.90
2018-02-18T07:48:25.476Z,31.10
2018-02-18T07:49:47.771Z,30.20
2018-02-18T07:50:48.632Z,32.10
2018-02-18T07:52:31.260Z,32.80
2018-02-18T07:53:32.165Z,34.20
2018-02-18T07:54:31.794Z,34.00
2018-02-18T07:55:31.590Z,34.40
2018-02-18T07:56:32.059Z,33.00
2018-02-18T07:57:31.597Z,33.80
2018-02-18T07:58:32.410Z,33.50
2018-02-18T07:59:32.090Z,34.10
2018-02-18T08:00:32.180Z,33.60
2018-02-18T08:01:31.898Z,32.90
2018-02-18T08:02:31.783Z,34.20
2018-02-18T08:03:31.630Z,32.10
2018-02-18T08:04:32.428Z,34.10
2018-02-18T08:05:31.841Z,32.60
2018-02-18T08:06:31.390Z,32.40
2018-02-18T08:07:32.176Z,33.60
2018-02-18T08:08:31.726Z,32.60
2018-02-18T08:09:31.598Z,32.70
2018-02-18T08:10:54.072Z,32.40
2018-02-18T08:11:54.487Z,32.40
2018-02-18T08:13:16.967Z,32.90
2018-02-18T08:14:17.911Z,33.10
2018-02-18T08:15:17.404Z,32.50
2018-02-18T08:16:38.493Z,32.00
2018-02-18T08:17:39.047Z,33.00
2018-02-18T08:18:39.371Z,32.40
2018-02-18T08:19:39.408Z,33.10
2018-02-18T08:20:39.065Z,33.00
2018-02-18T08:21:39.704Z,31.40
2018-02-18T08:22:39.265Z,32.10
2018-02-18T08:23:38.969Z,33.20
2018-02-18T08:24:39.047Z,31.50
2018-02-18T08:25:38.752Z,31.90
2018-02-18T08:26:39.681Z,31.00
2018-02-18T08:27:39.481Z,31.70
2018-02-18T08:28:39.243Z,30.70
2018-02-18T08:29:38.992Z,31.00
2018-02-18T08:30:39.117Z,31.00
2018-02-18T08:31:38.623Z,32.60
2018-02-18T08:32:39.484Z,31.20
2018-02-18T08:33:39.534Z,30.20
2018-02-18T08:34:39.388Z,31.30
2018-02-18T08:35:38.996Z,29.90
2018-02-18T08:36:38.584Z,30.60
2018-02-18T08:37:39.185Z,29.90
2018-02-18T08:38:39.077Z,31.60
2018-02-18T08:39:38.701Z,31.70
2018-02-18T08:40:39.782Z,30.80
2018-02-18T08:41:39.759Z,31.30
2018-02-18T08:42:40.500Z,31.50
2018-02-18T08:43:39.295Z,30.70
2018-02-18T08:44:39.080Z,29.80
2018-02-18T08:45:39.018Z,30.60
2018-02-18T08:46:38.688Z,29.90
2018-02-18T08:47:39.413Z,30.80
2018-02-18T08:48:38.859Z,30.70
2018-02-18T08:49:38.436Z,28.90
2018-02-18T08:50:38.989Z,29.00
2018-02-18T08:51:38.449Z,28.70
2018-02-18T08:52:39.007Z,27.90
2018-02-18T08:53:38.743Z,26.80
2018-02-18T08:54:39.776Z,27.20
2018-02-18T08:55:39.652Z,27.40
2018-02-18T08:56:39.480Z,27.80
2018-02-18T08:57:39.362Z,26.70
2018-02-18T08:58:38.811Z,26.50
2018-02-18T08:59:39.354Z,27.10
2018-02-18T09:00:39.144Z,26.70
2018-02-18T09:01:38.556Z,24.90
2018-02-18T09:02:40.125Z,25.60
2018-02-18T09:03:39.108Z,25.60
2018-02-18T09:04:38.657Z,24.90
2018-02-18T09:05:39.645Z,24.40
2018-02-18T09:06:39.593Z,25.60
2018-02-18T09:07:39.115Z,24.20
2018-02-18T09:08:38.810Z,22.90
2018-02-18T09:09:38.838Z,22.10
2018-02-18T09:10:38.563Z,23.50
2018-02-18T09:11:39.191Z,22.30
2018-02-18T09:12:38.922Z,20.80
2018-02-18T09:13:38.925Z,21.80
2018-02-18T09:14:39.521Z,21.70
2018-02-18T09:15:39.619Z,21.40
2018-02-18T09:16:39.728Z,20.50
2018-02-18T09:17:39.731Z,20.30
2018-02-18T09:18:39.464Z,21.00
2018-02-18T09:19:39.085Z,19.20
2018-02-18T09:20:38.890Z,20.30
2018-02-18T09:21:39.884Z,20.30
2018-02-18T09:22:39.093Z,20.50
2018-02-18T09:24:22.588Z,19.90
2018-02-18T09:25:22.181Z,20.90
2018-02-18T09:27:06.089Z,20.20
2018-02-18T09:28:06.294Z,20.00
2018-02-18T09:29:06.261Z,19.80
2018-02-18T09:30:06.022Z,33.30
2018-02-18T09:31:06.789Z,20.40
2018-02-18T09:32:06.997Z,20.10
2018-02-18T09:33:06.948Z,20.40
2018-02-18T09:34:06.227Z,19.30
2018-02-18T09:35:06.038Z,19.60
2018-02-18T09:36:06.611Z,19.20
2018-02-18T09:37:49.765Z,18.20
2018-02-18T09:38:50.529Z,17.90
2018-02-18T09:39:50.412Z,17.50
2018-02-18T09:40:51.230Z,18.20
2018-02-18T09:41:51.294Z,18.40
2018-02-18T09:42:50.389Z,18.00
2018-02-18T09:43:50.569Z,18.50
2018-02-18T09:44:50.212Z,17.90
2018-02-18T09:45:50.637Z,18.00
2018-02-18T09:46:50.530Z,18.40
2018-02-18T09:47:50.382Z,18.20
2018-02-18T09:48:50.344Z,18.50
2018-02-18T09:50:12.063Z,19.40
2018-02-18T09:51:13.153Z,19.10
2018-02-18T09:52:56.822Z,17.50
2018-02-18T09:53:56.706Z,18.40
2018-02-18T09:55:18.886Z,20.50
2018-02-18T09:56:19.520Z,19.20
2018-02-18T09:57:19.086Z,18.50
2018-02-18T09:58:19.740Z,17.90
2018-02-18T09:59:19.755Z,17.40
2018-02-18T10:00:20.019Z,17.80
2018-02-18T10:01:19.558Z,19.00
2018-02-18T10:02:19.420Z,18.70
2018-02-18T10:03:19.414Z,18.80
2018-02-18T10:04:19.566Z,18.80
2018-02-18T10:05:19.280Z,18.20
2018-02-18T10:06:19.741Z,18.90
2018-02-18T10:07:19.269Z,19.00
2018-02-18T10:08:19.893Z,19.10
2018-02-18T10:09:20.334Z,18.70
2018-02-18T10:10:20.029Z,19.40
2018-02-18T10:11:20.059Z,18.60
2018-02-18T10:12:19.911Z,18.80
2018-02-18T10:13:19.432Z,18.50
2018-02-18T10:14:19.534Z,19.00
2018-02-18T10:15:19.536Z,19.60
2018-02-18T10:16:41.422Z,17.70
2018-02-18T10:17:41.897Z,19.00
2018-02-18T10:18:41.939Z,18.80
2018-02-18T10:19:41.691Z,18.70
2018-02-18T10:20:41.675Z,19.10
2018-02-18T10:21:41.285Z,20.00
2018-02-18T10:22:42.885Z,19.30
2018-02-18T10:23:41.940Z,19.20
2018-02-18T10:24:41.967Z,20.30
2018-02-18T10:25:41.643Z,19.50
2018-02-18T10:26:41.466Z,18.60
2018-02-18T10:27:41.155Z,19.00
2018-02-18T10:28:41.998Z,20.70
2018-02-18T10:29:41.807Z,19.00
2018-02-18T10:30:42.554Z,17.80
2018-02-18T10:31:41.478Z,17.90
2018-02-18T10:32:41.482Z,17.80
2018-02-18T10:33:41.258Z,17.60
2018-02-18T10:34:42.028Z,18.30
2018-02-18T10:35:43.106Z,18.80
2018-02-18T10:36:44.034Z,18.10
2018-02-18T10:37:43.950Z,17.40
2018-02-18T10:38:43.962Z,17.30
2018-02-18T10:39:44.373Z,16.50
2018-02-18T10:40:42.958Z,16.50
2018-02-18T10:42:04.206Z,15.20
2018-02-18T10:43:04.752Z,16.40
2018-02-18T10:44:05.833Z,16.40
2018-02-18T10:45:03.718Z,16.30
2018-02-18T10:46:04.818Z,17.50
2018-02-18T10:47:05.302Z,16.40
2018-02-18T10:48:04.442Z,17.60
2018-02-18T10:49:04.306Z,17.00
2018-02-18T10:50:04.680Z,15.40
2018-02-18T10:51:26.300Z,17.20
2018-02-18T10:52:27.821Z,16.00
2018-02-18T10:53:26.903Z,16.50
2018-02-18T10:54:27.284Z,15.70
2018-02-18T10:55:27.405Z,16.70
2018-02-18T10:56:26.364Z,17.20
2018-02-18T10:57:26.961Z,16.60
2018-02-18T10:58:26.949Z,17.60
2018-02-18T10:59:26.766Z,15.60
2018-02-18T11:00:27.026Z,15.20
2018-02-18T11:01:26.485Z,15.50
2018-02-18T11:02:48.164Z,15.70
2018-02-18T11:03:48.151Z,15.70
2018-02-18T11:04:48.145Z,15.80
2018-02-18T11:05:47.986Z,15.10
2018-02-18T11:06:48.995Z,15.00
2018-02-18T11:07:47.778Z,15.20
2018-02-18T11:08:48.605Z,15.50
2018-02-18T11:09:48.265Z,15.10
2018-02-18T11:10:48.189Z,15.80
2018-02-18T11:11:48.317Z,15.70
2018-02-18T11:12:48.449Z,15.10
2018-02-18T11:13:49.622Z,16.40
2018-02-18T11:14:48.832Z,15.20
2018-02-18T11:16:11.136Z,16.70
2018-02-18T11:17:12.352Z,18.30
2018-02-18T11:18:12.599Z,22.90
2018-02-18T11:19:11.458Z,16.20
2018-02-18T11:20:12.047Z,16.50
2018-02-18T11:21:13.499Z,20.30
2018-02-18T11:22:11.561Z,16.00
2018-02-18T11:23:11.831Z,47.40
2018-02-18T11:24:12.244Z,18.90
2018-02-18T11:25:11.197Z,28.00
2018-02-18T11:26:11.988Z,17.50
2018-02-18T11:27:12.193Z,24.40
2018-02-18T11:28:12.384Z,15.40
2018-02-18T11:29:11.479Z,16.60
2018-02-18T11:30:11.291Z,17.90
2018-02-18T11:31:11.946Z,14.00
2018-02-18T11:32:11.889Z,12.90
2018-02-18T11:33:12.222Z,14.70
2018-02-18T11:34:12.326Z,13.80
2018-02-18T11:35:12.286Z,14.30
2018-02-18T11:36:33.409Z,14.60
2018-02-18T11:37:34.335Z,14.60
2018-02-18T11:38:34.559Z,14.20
2018-02-18T11:39:34.697Z,15.00
2018-02-18T11:40:33.708Z,14.70
2018-02-18T11:41:54.843Z,15.10
2018-02-18T11:42:55.910Z,14.10
2018-02-18T11:43:55.443Z,13.90
2018-02-18T11:44:55.730Z,14.30
2018-02-18T11:45:55.529Z,14.10
2018-02-18T11:46:55.694Z,14.90
2018-02-18T11:47:55.997Z,13.40
2018-02-18T11:48:56.183Z,13.40
2018-02-18T11:49:56.529Z,13.60
2018-02-18T11:50:55.647Z,13.10
2018-02-18T11:51:55.265Z,13.80
2018-02-18T11:52:55.752Z,14.00
2018-02-18T11:53:55.414Z,14.80
2018-02-18T11:54:55.124Z,14.70
2018-02-18T11:55:55.856Z,14.70
2018-02-18T11:56:57.188Z,14.40
2018-02-18T11:57:55.735Z,13.70
2018-02-18T11:58:55.601Z,13.80
2018-02-18T11:59:57.112Z,14.30
2018-02-18T12:00:56.054Z,14.20
2018-02-18T12:01:55.067Z,13.80
2018-02-18T12:02:55.346Z,13.80
2018-02-18T12:03:54.941Z,14.00
2018-02-18T12:04:55.557Z,15.30
2018-02-18T12:05:56.093Z,14.60
2018-02-18T12:07:18.609Z,16.10
2018-02-18T12:08:19.022Z,14.00
2018-02-18T12:09:18.989Z,15.30
2018-02-18T12:10:18.810Z,14.60
2018-02-18T12:11:19.248Z,15.40
2018-02-18T12:12:19.528Z,15.40
2018-02-18T12:13:40.287Z,15.90
2018-02-18T12:14:40.947Z,14.50
2018-02-18T12:15:40.753Z,14.70
2018-02-18T12:16:40.600Z,15.00
2018-02-18T12:17:40.681Z,15.70
2018-02-18T12:18:41.158Z,15.20
2018-02-18T12:19:40.317Z,16.30
2018-02-18T12:20:40.334Z,14.80
2018-02-18T12:21:40.810Z,14.60
2018-02-18T12:22:40.972Z,15.60
2018-02-18T12:23:41.116Z,14.60
2018-02-18T12:24:40.782Z,15.60
2018-02-18T12:25:40.569Z,15.40
2018-02-18T12:26:40.363Z,15.60
2018-02-18T12:27:40.617Z,15.50
2018-02-18T12:28:40.284Z,14.70
2018-02-18T12:29:39.944Z,16.00
2018-02-18T12:30:40.641Z,16.40
2018-02-18T12:32:02.211Z,14.50
2018-02-18T12:33:02.978Z,14.40
2018-02-18T12:34:03.595Z,15.50
2018-02-18T12:35:02.322Z,15.20
2018-02-18T12:36:02.555Z,15.90
2018-02-18T12:37:02.953Z,15.60
2018-02-18T12:38:03.264Z,16.60
2018-02-18T12:39:02.057Z,16.70
2018-02-18T12:40:46.105Z,17.10
2018-02-18T12:41:46.989Z,15.50
2018-02-18T12:42:47.828Z,15.40
2018-02-18T12:43:46.835Z,16.10
2018-02-18T12:44:47.598Z,14.80
2018-02-18T12:45:46.939Z,16.40
2018-02-18T12:46:46.850Z,15.00
2018-02-18T12:48:08.962Z,15.90
2018-02-18T12:49:09.527Z,17.00
2018-02-18T12:50:09.450Z,17.30
2018-02-18T12:51:09.075Z,15.90
2018-02-18T12:52:11.454Z,15.90
2018-02-18T12:53:09.613Z,16.30
2018-02-18T12:54:52.945Z,15.10
2018-02-18T12:55:54.282Z,16.90
2018-02-18T12:56:53.267Z,16.10
2018-02-18T12:57:54.620Z,16.60
2018-02-18T12:58:53.815Z,16.40
2018-02-18T12:59:53.874Z,16.50
2018-02-18T13:00:53.998Z,17.00
2018-02-18T13:02:16.743Z,15.70
2018-02-18T13:03:16.619Z,17.10
2018-02-18T13:04:16.581Z,16.30
2018-02-18T13:05:39.263Z,17.00
2018-02-18T13:06:43.162Z,16.60
2018-02-18T13:07:45.604Z,17.70
2018-02-18T13:08:41.464Z,21.50
2018-02-18T13:09:40.662Z,18.40
2018-02-18T13:10:39.979Z,16.80
2018-02-18T13:11:39.680Z,17.00
2018-02-18T13:12:39.824Z,16.80
2018-02-18T13:13:39.501Z,17.00
2018-02-18T13:14:39.756Z,18.50
2018-02-18T13:15:40.177Z,22.60